Live aus Altenrhein
LIVE
LSZR 240450Z 09004KT 9999 SCT050 BKN070 16/14 Q1011 NOSIG RMK A

People´s Info Center:

Öffnungszeiten Mo-Fr, 8-18 Uhr

 

info@peoples.ch

 
Aus Österreich:

T: +43 (0)5572 203 610

 

Aus CH / LI / DE:

T: +41 (0)71 858 51 60

 

Mit People´s in die Ostschweiz

Von Chur über St. Gallen, St. Moritz, Davos bis Zürich.

Zur Ostschweiz zählen die Kantone Schaffhausen, Thurgau, St.Gallen, Appenzell Ausserrhoden und Innerrhoden. Geniessen Sie eine Reise vom tosenden Rheinfall aufwärts an das Bodenseeufer, in den Thurgau mit seinen Obstplantagen. Weiter über die sanft gewellte Hügellandschaft, zum mächtigen Alpsteinmassiv im Appenzellerland. Lassen Sie den Blick zu den Gipfeln der sieben Churfirsten im Toggenburg, das St.Galler Rheintal, das Fürstentum Liechtenstein und an den Zürichsee schweifen. Alle Informationen über die Region finden Sie bei folgenden Tourismus Organisationen: